sensor_id;sensor_type;location;lat;lon;timestamp;P1;durP1;ratioP1;P2;durP2;ratioP2
61525;SDS011;47394;41.366;-8.738;2023-04-10T00:01:56;52.15;;;7.93;;
61525;SDS011;47394;41.366;-8.738;2023-04-10T00:03:57;44.45;;;7.82;;
61525;SDS011;47394;41.366;-8.738;2023-04-10T00:05:57;46.97;;;7.25;;
61525;SDS011;47394;41.366;-8.738;2023-04-10T00:07:58;59.17;;;8.60;;
61525;SDS011;47394;41.366;-8.738;2023-04-10T00:09:58;35.50;;;7.28;;
61525;SDS011;47394;41.366;-8.738;2023-04-10T00:11:59;43.45;;;7.43;;
61525;SDS011;47394;41.366;-8.738;2023-04-10T00:14:00;46.25;;;7.13;;
61525;SDS011;47394;41.366;-8.738;2023-04-10T00:16:00;37.78;;;6.65;;
61525;SDS011;47394;41.366;-8.738;2023-04-10T00:18:01;54.95;;;8.48;;
61525;SDS011;47394;41.366;-8.738;2023-04-10T00:20:01;38.50;;;6.93;;
61525;SDS011;47394;41.366;-8.738;2023-04-10T00:22:03;42.83;;;7.60;;
61525;SDS011;47394;41.366;-8.738;2023-04-10T00:24:04;50.85;;;7.47;;
61525;SDS011;47394;41.366;-8.738;2023-04-10T00:26:04;39.13;;;6.75;;
61525;SDS011;47394;41.366;-8.738;2023-04-10T00:28:05;33.08;;;6.57;;
61525;SDS011;47394;41.366;-8.738;2023-04-10T00:30:06;32.95;;;6.93;;
61525;SDS011;47394;41.366;-8.738;2023-04-10T00:32:06;25.20;;;6.05;;
61525;SDS011;47394;41.366;-8.738;2023-04-10T00:34:07;35.05;;;7.20;;
61525;SDS011;47394;41.366;-8.738;2023-04-10T00:36:08;20.10;;;6.07;;
61525;SDS011;47394;41.366;-8.738;2023-04-10T00:38:08;26.13;;;5.70;;
61525;SDS011;47394;41.366;-8.738;2023-04-10T00:40:09;18.40;;;4.93;;
61525;SDS011;47394;41.366;-8.738;2023-04-10T00:42:09;15.38;;;5.90;;
61525;SDS011;47394;41.366;-8.738;2023-04-10T00:44:10;24.73;;;5.53;;
61525;SDS011;47394;41.366;-8.738;2023-04-10T00:46:11;24.45;;;6.35;;
61525;SDS011;47394;41.366;-8.738;2023-04-10T00:48:13;28.08;;;7.57;;
61525;SDS011;47394;41.366;-8.738;2023-04-10T00:50:14;24.50;;;6.53;;
61525;SDS011;47394;41.366;-8.738;2023-04-10T00:52:14;26.35;;;7.15;;
61525;SDS011;47394;41.366;-8.738;2023-04-10T00:54:15;27.30;;;6.63;;
61525;SDS011;47394;41.366;-8.738;2023-04-10T00:56:16;25.52;;;7.70;;
61525;SDS011;47394;41.366;-8.738;2023-04-10T00:58:17;30.27;;;8.20;;
61525;SDS011;47394;41.366;-8.738;2023-04-10T01:00:19;33.58;;;7.18;;
61525;SDS011;47394;41.366;-8.738;2023-04-10T01:02:21;30.83;;;8.05;;
61525;SDS011;47394;41.366;-8.738;2023-04-10T01:04:24;30.92;;;8.48;;
61525;SDS011;47394;41.366;-8.738;2023-04-10T01:06:29;29.73;;;7.57;;
61525;SDS011;47394;41.366;-8.738;2023-04-10T01:15:17;27.70;;;9.05;;
61525;SDS011;47394;41.366;-8.738;2023-04-10T01:17:30;25.10;;;9.35;;
61525;SDS011;47394;41.366;-8.738;2023-04-10T01:21:53;29.85;;;10.50;;
61525;SDS011;47394;41.366;-8.738;2023-04-10T01:26:03;25.98;;;9.77;;
61525;SDS011;47394;41.366;-8.738;2023-04-10T01:30:18;32.00;;;10.15;;
61525;SDS011;47394;41.366;-8.738;2023-04-10T01:32:21;28.05;;;10.40;;
61525;SDS011;47394;41.366;-8.738;2023-04-10T01:34:30;30.00;;;11.10;;
61525;SDS011;47394;41.366;-8.738;2023-04-10T01:36:33;38.03;;;10.90;;
61525;SDS011;47394;41.366;-8.738;2023-04-10T01:38:35;25.92;;;10.65;;
61525;SDS011;47394;41.366;-8.738;2023-04-10T01:40:38;22.48;;;10.05;;
61525;SDS011;47394;41.366;-8.738;2023-04-10T01:42:51;30.90;;;11.68;;
61525;SDS011;47394;41.366;-8.738;2023-04-10T01:44:57;24.80;;;10.55;;
61525;SDS011;47394;41.366;-8.738;2023-04-10T01:46:58;22.63;;;11.10;;
61525;SDS011;47394;41.366;-8.738;2023-04-10T01:49:00;21.48;;;10.73;;
61525;SDS011;47394;41.366;-8.738;2023-04-10T01:51:02;28.40;;;11.13;;
61525;SDS011;47394;41.366;-8.738;2023-04-10T01:55:05;31.25;;;11.63;;
61525;SDS011;47394;41.366;-8.738;2023-04-10T01:57:32;30.30;;;11.18;;
61525;SDS011;47394;41.366;-8.738;2023-04-10T01:59:37;26.17;;;11.13;;
61525;SDS011;47394;41.366;-8.738;2023-04-10T02:03:38;26.65;;;11.55;;
61525;SDS011;47394;41.366;-8.738;2023-04-10T02:07:53;26.17;;;12.13;;
61525;SDS011;47394;41.366;-8.738;2023-04-10T02:12:08;33.72;;;11.75;;
61525;SDS011;47394;41.366;-8.738;2023-04-10T02:14:10;25.55;;;12.90;;
61525;SDS011;47394;41.366;-8.738;2023-04-10T02:16:14;32.83;;;13.32;;
61525;SDS011;47394;41.366;-8.738;2023-04-10T02:18:16;35.47;;;12.27;;
61525;SDS011;47394;41.366;-8.738;2023-04-10T02:20:17;22.48;;;11.73;;
61525;SDS011;47394;41.366;-8.738;2023-04-10T02:22:19;26.63;;;11.07;;
61525;SDS011;47394;41.366;-8.738;2023-04-10T02:24:21;12.85;;;10.13;;
61525;SDS011;47394;41.366;-8.738;2023-04-10T02:26:21;36.53;;;12.90;;
61525;SDS011;47394;41.366;-8.738;2023-04-10T02:28:22;28.17;;;12.05;;
61525;SDS011;47394;41.366;-8.738;2023-04-10T02:30:22;30.38;;;13.05;;
61525;SDS011;47394;41.366;-8.738;2023-04-10T02:32:24;25.02;;;12.77;;
61525;SDS011;47394;41.366;-8.738;2023-04-10T02:34:24;29.60;;;12.32;;
61525;SDS011;47394;41.366;-8.738;2023-04-10T02:36:25;29.05;;;12.20;;
61525;SDS011;47394;41.366;-8.738;2023-04-10T02:38:28;24.17;;;13.10;;
61525;SDS011;47394;41.366;-8.738;2023-04-10T02:40:30;26.73;;;12.88;;
61525;SDS011;47394;41.366;-8.738;2023-04-10T02:44:44;23.00;;;13.70;;
61525;SDS011;47394;41.366;-8.738;2023-04-10T02:46:46;24.90;;;13.07;;
61525;SDS011;47394;41.366;-8.738;2023-04-10T02:48:47;27.83;;;13.25;;
61525;SDS011;47394;41.366;-8.738;2023-04-10T02:50:48;35.67;;;13.60;;
61525;SDS011;47394;41.366;-8.738;2023-04-10T02:52:48;21.05;;;11.93;;
61525;SDS011;47394;41.366;-8.738;2023-04-10T02:54:49;29.65;;;13.10;;
61525;SDS011;47394;41.366;-8.738;2023-04-10T02:56:51;22.40;;;12.23;;
61525;SDS011;47394;41.366;-8.738;2023-04-10T02:58:51;26.25;;;12.85;;
61525;SDS011;47394;41.366;-8.738;2023-04-10T03:00:52;23.63;;;13.43;;
61525;SDS011;47394;41.366;-8.738;2023-04-10T03:03:10;26.40;;;12.52;;
61525;SDS011;47394;41.366;-8.738;2023-04-10T03:05:23;25.45;;;13.45;;
61525;SDS011;47394;41.366;-8.738;2023-04-10T03:07:24;27.92;;;12.85;;
61525;SDS011;47394;41.366;-8.738;2023-04-10T03:09:25;24.55;;;13.27;;
61525;SDS011;47394;41.366;-8.738;2023-04-10T03:11:27;28.27;;;12.73;;
61525;SDS011;47394;41.366;-8.738;2023-04-10T03:13:28;37.50;;;13.95;;
61525;SDS011;47394;41.366;-8.738;2023-04-10T03:15:29;23.90;;;13.82;;
61525;SDS011;47394;41.366;-8.738;2023-04-10T03:17:31;26.92;;;14.98;;
61525;SDS011;47394;41.366;-8.738;2023-04-10T03:19:32;33.88;;;14.23;;
61525;SDS011;47394;41.366;-8.738;2023-04-10T03:21:32;24.58;;;13.60;;
61525;SDS011;47394;41.366;-8.738;2023-04-10T03:23:33;20.52;;;13.45;;
61525;SDS011;47394;41.366;-8.738;2023-04-10T03:25:34;25.13;;;13.90;;
61525;SDS011;47394;41.366;-8.738;2023-04-10T03:27:36;19.73;;;12.35;;
61525;SDS011;47394;41.366;-8.738;2023-04-10T03:29:37;23.88;;;13.98;;
61525;SDS011;47394;41.366;-8.738;2023-04-10T03:31:38;20.35;;;13.43;;
61525;SDS011;47394;41.366;-8.738;2023-04-10T03:33:39;23.52;;;15.15;;
61525;SDS011;47394;41.366;-8.738;2023-04-10T03:35:40;27.98;;;15.77;;
61525;SDS011;47394;41.366;-8.738;2023-04-10T03:37:41;35.88;;;17.10;;
61525;SDS011;47394;41.366;-8.738;2023-04-10T03:39:41;33.25;;;17.00;;
61525;SDS011;47394;41.366;-8.738;2023-04-10T03:41:42;36.50;;;17.83;;
61525;SDS011;47394;41.366;-8.738;2023-04-10T03:43:42;26.88;;;17.10;;
61525;SDS011;47394;41.366;-8.738;2023-04-10T03:45:43;30.35;;;17.48;;
61525;SDS011;47394;41.366;-8.738;2023-04-10T03:47:44;34.97;;;19.30;;
61525;SDS011;47394;41.366;-8.738;2023-04-10T03:49:48;31.27;;;18.25;;
61525;SDS011;47394;41.366;-8.738;2023-04-10T03:51:48;30.23;;;18.90;;
61525;SDS011;47394;41.366;-8.738;2023-04-10T03:53:49;33.47;;;19.50;;
61525;SDS011;47394;41.366;-8.738;2023-04-10T03:55:50;41.30;;;21.05;;
61525;SDS011;47394;41.366;-8.738;2023-04-10T03:57:55;32.17;;;20.27;;
61525;SDS011;47394;41.366;-8.738;2023-04-10T03:59:57;37.38;;;21.67;;
61525;SDS011;47394;41.366;-8.738;2023-04-10T04:01:59;33.92;;;21.13;;
61525;SDS011;47394;41.366;-8.738;2023-04-10T04:04:00;30.75;;;20.38;;
61525;SDS011;47394;41.366;-8.738;2023-04-10T04:06:20;31.75;;;21.70;;
61525;SDS011;47394;41.366;-8.738;2023-04-10T04:08:40;36.97;;;21.33;;
61525;SDS011;47394;41.366;-8.738;2023-04-10T04:11:01;31.92;;;19.55;;
61525;SDS011;47394;41.366;-8.738;2023-04-10T04:13:09;30.65;;;19.05;;
61525;SDS011;47394;41.366;-8.738;2023-04-10T04:15:26;28.50;;;19.52;;
61525;SDS011;47394;41.366;-8.738;2023-04-10T04:17:47;37.70;;;19.65;;
61525;SDS011;47394;41.366;-8.738;2023-04-10T04:20:06;28.15;;;19.50;;
61525;SDS011;47394;41.366;-8.738;2023-04-10T04:22:25;42.75;;;20.05;;
61525;SDS011;47394;41.366;-8.738;2023-04-10T04:24:42;43.45;;;20.25;;
61525;SDS011;47394;41.366;-8.738;2023-04-10T04:27:01;34.78;;;18.88;;
61525;SDS011;47394;41.366;-8.738;2023-04-10T04:29:36;31.02;;;19.65;;
61525;SDS011;47394;41.366;-8.738;2023-04-10T04:31:46;38.60;;;20.70;;
61525;SDS011;47394;41.366;-8.738;2023-04-10T04:34:06;30.88;;;19.80;;
61525;SDS011;47394;41.366;-8.738;2023-04-10T04:36:21;40.88;;;20.42;;
61525;SDS011;47394;41.366;-8.738;2023-04-10T04:38:48;36.03;;;20.58;;
61525;SDS011;47394;41.366;-8.738;2023-04-10T04:41:27;35.85;;;20.58;;
61525;SDS011;47394;41.366;-8.738;2023-04-10T04:43:51;34.67;;;20.13;;
61525;SDS011;47394;41.366;-8.738;2023-04-10T04:46:00;40.50;;;21.77;;
61525;SDS011;47394;41.366;-8.738;2023-04-10T04:48:13;33.03;;;20.05;;
61525;SDS011;47394;41.366;-8.738;2023-04-10T04:50:30;28.13;;;18.80;;
61525;SDS011;47394;41.366;-8.738;2023-04-10T04:52:47;37.45;;;20.48;;
61525;SDS011;47394;41.366;-8.738;2023-04-10T04:55:08;29.00;;;19.20;;
61525;SDS011;47394;41.366;-8.738;2023-04-10T04:57:38;30.60;;;17.98;;
61525;SDS011;47394;41.366;-8.738;2023-04-10T04:59:52;33.65;;;19.08;;
61525;SDS011;47394;41.366;-8.738;2023-04-10T05:02:31;37.50;;;20.35;;
61525;SDS011;47394;41.366;-8.738;2023-04-10T05:04:40;33.58;;;19.75;;
61525;SDS011;47394;41.366;-8.738;2023-04-10T05:06:53;31.67;;;20.95;;
61525;SDS011;47394;41.366;-8.738;2023-04-10T05:09:13;33.30;;;21.58;;
61525;SDS011;47394;41.366;-8.738;2023-04-10T05:11:37;36.75;;;21.88;;
61525;SDS011;47394;41.366;-8.738;2023-04-10T05:13:51;38.72;;;21.23;;
61525;SDS011;47394;41.366;-8.738;2023-04-10T05:16:05;37.97;;;21.48;;
61525;SDS011;47394;41.366;-8.738;2023-04-10T05:18:11;30.52;;;20.77;;
61525;SDS011;47394;41.366;-8.738;2023-04-10T05:20:33;27.08;;;18.67;;
61525;SDS011;47394;41.366;-8.738;2023-04-10T05:23:09;37.10;;;24.20;;
61525;SDS011;47394;41.366;-8.738;2023-04-10T05:25:19;29.00;;;19.25;;
61525;SDS011;47394;41.366;-8.738;2023-04-10T05:27:39;26.08;;;15.35;;
61525;SDS011;47394;41.366;-8.738;2023-04-10T05:30:00;26.02;;;15.10;;
61525;SDS011;47394;41.366;-8.738;2023-04-10T05:32:14;20.65;;;15.60;;
61525;SDS011;47394;41.366;-8.738;2023-04-10T05:34:43;22.95;;;16.88;;
61525;SDS011;47394;41.366;-8.738;2023-04-10T05:37:04;28.48;;;17.30;;
61525;SDS011;47394;41.366;-8.738;2023-04-10T05:39:31;30.13;;;17.75;;
61525;SDS011;47394;41.366;-8.738;2023-04-10T05:41:41;38.97;;;19.60;;
61525;SDS011;47394;41.366;-8.738;2023-04-10T05:44:17;28.77;;;17.45;;
61525;SDS011;47394;41.366;-8.738;2023-04-10T05:48:57;29.38;;;18.77;;
61525;SDS011;47394;41.366;-8.738;2023-04-10T05:51:25;28.25;;;19.42;;
61525;SDS011;47394;41.366;-8.738;2023-04-10T05:53:49;33.78;;;18.48;;
61525;SDS011;47394;41.366;-8.738;2023-04-10T05:56:08;35.92;;;19.15;;
61525;SDS011;47394;41.366;-8.738;2023-04-10T05:58:28;34.17;;;20.77;;
61525;SDS011;47394;41.366;-8.738;2023-04-10T06:00:48;41.80;;;19.83;;
61525;SDS011;47394;41.366;-8.738;2023-04-10T06:03:18;37.97;;;20.77;;
61525;SDS011;47394;41.366;-8.738;2023-04-10T06:05:26;38.92;;;21.40;;
61525;SDS011;47394;41.366;-8.738;2023-04-10T06:07:32;42.47;;;20.48;;
61525;SDS011;47394;41.366;-8.738;2023-04-10T06:09:33;29.10;;;19.60;;
61525;SDS011;47394;41.366;-8.738;2023-04-10T06:11:34;33.08;;;19.73;;
61525;SDS011;47394;41.366;-8.738;2023-04-10T06:13:34;32.03;;;21.17;;
61525;SDS011;47394;41.366;-8.738;2023-04-10T06:15:36;27.95;;;19.45;;
61525;SDS011;47394;41.366;-8.738;2023-04-10T06:17:42;31.23;;;18.45;;
61525;SDS011;47394;41.366;-8.738;2023-04-10T06:19:43;38.38;;;19.00;;
61525;SDS011;47394;41.366;-8.738;2023-04-10T06:21:44;34.42;;;19.65;;
61525;SDS011;47394;41.366;-8.738;2023-04-10T06:23:45;35.72;;;19.40;;
61525;SDS011;47394;41.366;-8.738;2023-04-10T06:25:46;28.77;;;19.00;;
61525;SDS011;47394;41.366;-8.738;2023-04-10T06:27:47;31.13;;;19.38;;
61525;SDS011;47394;41.366;-8.738;2023-04-10T06:29:47;32.63;;;18.98;;
61525;SDS011;47394;41.366;-8.738;2023-04-10T06:31:49;31.40;;;18.17;;
61525;SDS011;47394;41.366;-8.738;2023-04-10T06:33:50;42.65;;;19.27;;
61525;SDS011;47394;41.366;-8.738;2023-04-10T06:35:51;29.98;;;18.05;;
61525;SDS011;47394;41.366;-8.738;2023-04-10T06:37:53;39.45;;;19.58;;
61525;SDS011;47394;41.366;-8.738;2023-04-10T06:40:04;35.25;;;18.05;;
61525;SDS011;47394;41.366;-8.738;2023-04-10T06:42:05;29.02;;;18.20;;
61525;SDS011;47394;41.366;-8.738;2023-04-10T06:44:25;29.55;;;18.20;;
61525;SDS011;47394;41.366;-8.738;2023-04-10T06:46:26;31.05;;;19.20;;
61525;SDS011;47394;41.366;-8.738;2023-04-10T06:48:27;30.50;;;18.63;;
61525;SDS011;47394;41.366;-8.738;2023-04-10T06:50:27;33.20;;;19.38;;
61525;SDS011;47394;41.366;-8.738;2023-04-10T06:52:28;33.13;;;18.95;;
61525;SDS011;47394;41.366;-8.738;2023-04-10T06:54:28;33.38;;;18.42;;
61525;SDS011;47394;41.366;-8.738;2023-04-10T06:56:29;35.60;;;19.05;;
61525;SDS011;47394;41.366;-8.738;2023-04-10T06:58:29;31.77;;;17.83;;
61525;SDS011;47394;41.366;-8.738;2023-04-10T07:00:30;26.45;;;17.60;;
61525;SDS011;47394;41.366;-8.738;2023-04-10T07:02:31;26.05;;;16.30;;
61525;SDS011;47394;41.366;-8.738;2023-04-10T07:04:31;36.30;;;17.10;;
61525;SDS011;47394;41.366;-8.738;2023-04-10T07:06:32;28.90;;;16.73;;
61525;SDS011;47394;41.366;-8.738;2023-04-10T07:08:32;31.05;;;17.15;;
61525;SDS011;47394;41.366;-8.738;2023-04-10T07:10:33;36.40;;;17.58;;
61525;SDS011;47394;41.366;-8.738;2023-04-10T07:12:33;33.30;;;16.98;;
61525;SDS011;47394;41.366;-8.738;2023-04-10T07:14:34;30.90;;;16.38;;
61525;SDS011;47394;41.366;-8.738;2023-04-10T07:16:35;39.25;;;16.52;;
61525;SDS011;47394;41.366;-8.738;2023-04-10T07:18:36;35.22;;;16.85;;
61525;SDS011;47394;41.366;-8.738;2023-04-10T07:20:38;32.00;;;16.38;;
61525;SDS011;47394;41.366;-8.738;2023-04-10T07:22:38;28.00;;;15.90;;
61525;SDS011;47394;41.366;-8.738;2023-04-10T07:24:39;25.92;;;15.52;;
61525;SDS011;47394;41.366;-8.738;2023-04-10T07:26:39;38.03;;;16.65;;
61525;SDS011;47394;41.366;-8.738;2023-04-10T07:28:40;41.80;;;16.15;;
61525;SDS011;47394;41.366;-8.738;2023-04-10T07:30:40;30.75;;;15.65;;
61525;SDS011;47394;41.366;-8.738;2023-04-10T07:32:41;29.75;;;16.00;;
61525;SDS011;47394;41.366;-8.738;2023-04-10T07:34:42;32.28;;;15.75;;
61525;SDS011;47394;41.366;-8.738;2023-04-10T07:36:43;28.92;;;14.73;;
61525;SDS011;47394;41.366;-8.738;2023-04-10T07:38:44;34.97;;;15.95;;
61525;SDS011;47394;41.366;-8.738;2023-04-10T07:40:44;30.48;;;15.60;;
61525;SDS011;47394;41.366;-8.738;2023-04-10T07:42:45;28.23;;;15.63;;
61525;SDS011;47394;41.366;-8.738;2023-04-10T07:44:45;28.55;;;15.38;;
61525;SDS011;47394;41.366;-8.738;2023-04-10T07:46:46;21.20;;;13.75;;
61525;SDS011;47394;41.366;-8.738;2023-04-10T07:48:47;29.35;;;14.93;;
61525;SDS011;47394;41.366;-8.738;2023-04-10T07:50:48;33.35;;;15.13;;
61525;SDS011;47394;41.366;-8.738;2023-04-10T07:52:49;35.13;;;14.27;;
61525;SDS011;47394;41.366;-8.738;2023-04-10T07:54:50;22.13;;;13.23;;
61525;SDS011;47394;41.366;-8.738;2023-04-10T07:56:51;33.15;;;14.73;;
61525;SDS011;47394;41.366;-8.738;2023-04-10T07:58:51;29.50;;;14.20;;
61525;SDS011;47394;41.366;-8.738;2023-04-10T08:00:52;30.40;;;14.15;;
61525;SDS011;47394;41.366;-8.738;2023-04-10T08:02:52;20.65;;;13.00;;
61525;SDS011;47394;41.366;-8.738;2023-04-10T08:04:53;22.50;;;12.73;;
61525;SDS011;47394;41.366;-8.738;2023-04-10T08:06:53;26.60;;;14.00;;
61525;SDS011;47394;41.366;-8.738;2023-04-10T08:08:54;25.50;;;13.68;;
61525;SDS011;47394;41.366;-8.738;2023-04-10T08:10:54;28.88;;;13.63;;
61525;SDS011;47394;41.366;-8.738;2023-04-10T08:12:55;29.35;;;13.40;;
61525;SDS011;47394;41.366;-8.738;2023-04-10T08:14:56;27.65;;;13.80;;
61525;SDS011;47394;41.366;-8.738;2023-04-10T08:16:56;28.92;;;13.40;;
61525;SDS011;47394;41.366;-8.738;2023-04-10T08:18:57;28.85;;;13.52;;
61525;SDS011;47394;41.366;-8.738;2023-04-10T08:20:58;22.02;;;12.63;;
61525;SDS011;47394;41.366;-8.738;2023-04-10T08:22:58;26.88;;;13.05;;
61525;SDS011;47394;41.366;-8.738;2023-04-10T08:24:59;26.20;;;12.27;;
61525;SDS011;47394;41.366;-8.738;2023-04-10T08:26:59;20.30;;;13.23;;
61525;SDS011;47394;41.366;-8.738;2023-04-10T08:29:00;25.30;;;12.35;;
61525;SDS011;47394;41.366;-8.738;2023-04-10T08:31:00;28.08;;;12.38;;
61525;SDS011;47394;41.366;-8.738;2023-04-10T08:33:01;32.10;;;13.15;;
61525;SDS011;47394;41.366;-8.738;2023-04-10T08:35:02;29.70;;;12.50;;
61525;SDS011;47394;41.366;-8.738;2023-04-10T08:37:05;25.23;;;12.32;;
61525;SDS011;47394;41.366;-8.738;2023-04-10T08:39:06;30.35;;;12.80;;
61525;SDS011;47394;41.366;-8.738;2023-04-10T08:41:08;23.80;;;11.98;;
61525;SDS011;47394;41.366;-8.738;2023-04-10T08:45:09;29.85;;;11.40;;
61525;SDS011;47394;41.366;-8.738;2023-04-10T08:47:10;23.85;;;11.75;;
61525;SDS011;47394;41.366;-8.738;2023-04-10T08:49:16;25.43;;;12.17;;
61525;SDS011;47394;41.366;-8.738;2023-04-10T08:51:19;24.15;;;11.15;;
61525;SDS011;47394;41.366;-8.738;2023-04-10T08:53:20;26.65;;;12.10;;
61525;SDS011;47394;41.366;-8.738;2023-04-10T08:55:23;39.40;;;11.68;;
61525;SDS011;47394;41.366;-8.738;2023-04-10T08:57:23;24.08;;;11.75;;
61525;SDS011;47394;41.366;-8.738;2023-04-10T08:59:29;19.35;;;11.73;;
61525;SDS011;47394;41.366;-8.738;2023-04-10T09:01:33;27.00;;;11.93;;
61525;SDS011;47394;41.366;-8.738;2023-04-10T09:03:35;22.98;;;11.15;;
61525;SDS011;47394;41.366;-8.738;2023-04-10T09:05:35;23.25;;;12.40;;
61525;SDS011;47394;41.366;-8.738;2023-04-10T09:07:36;21.85;;;11.05;;
61525;SDS011;47394;41.366;-8.738;2023-04-10T09:09:36;28.33;;;11.27;;
61525;SDS011;47394;41.366;-8.738;2023-04-10T09:13:56;28.58;;;9.90;;
61525;SDS011;47394;41.366;-8.738;2023-04-10T09:15:59;23.80;;;10.23;;
61525;SDS011;47394;41.366;-8.738;2023-04-10T09:18:01;23.00;;;9.30;;
61525;SDS011;47394;41.366;-8.738;2023-04-10T09:20:01;20.20;;;9.52;;
61525;SDS011;47394;41.366;-8.738;2023-04-10T09:22:02;20.02;;;9.13;;
61525;SDS011;47394;41.366;-8.738;2023-04-10T09:24:03;18.25;;;8.77;;
61525;SDS011;47394;41.366;-8.738;2023-04-10T09:26:05;17.83;;;8.02;;
61525;SDS011;47394;41.366;-8.738;2023-04-10T09:28:20;14.95;;;7.35;;
61525;SDS011;47394;41.366;-8.738;2023-04-10T09:30:31;16.55;;;7.60;;
61525;SDS011;47394;41.366;-8.738;2023-04-10T09:32:42;15.82;;;7.22;;
61525;SDS011;47394;41.366;-8.738;2023-04-10T09:34:52;13.15;;;6.60;;
61525;SDS011;47394;41.366;-8.738;2023-04-10T09:36:54;14.82;;;6.68;;
61525;SDS011;47394;41.366;-8.738;2023-04-10T09:38:54;15.82;;;6.95;;
61525;SDS011;47394;41.366;-8.738;2023-04-10T09:41:05;13.48;;;6.10;;
61525;SDS011;47394;41.366;-8.738;2023-04-10T09:45:18;13.23;;;6.38;;
61525;SDS011;47394;41.366;-8.738;2023-04-10T09:47:19;13.70;;;5.97;;
61525;SDS011;47394;41.366;-8.738;2023-04-10T09:49:20;20.35;;;6.63;;
61525;SDS011;47394;41.366;-8.738;2023-04-10T09:51:31;15.45;;;6.13;;
61525;SDS011;47394;41.366;-8.738;2023-04-10T09:53:34;13.25;;;5.13;;
61525;SDS011;47394;41.366;-8.738;2023-04-10T09:55:47;11.55;;;4.75;;
61525;SDS011;47394;41.366;-8.738;2023-04-10T09:57:48;11.90;;;4.60;;
61525;SDS011;47394;41.366;-8.738;2023-04-10T09:59:50;12.85;;;4.43;;
61525;SDS011;47394;41.366;-8.738;2023-04-10T10:01:51;9.10;;;4.22;;
61525;SDS011;47394;41.366;-8.738;2023-04-10T10:03:52;15.18;;;4.40;;
61525;SDS011;47394;41.366;-8.738;2023-04-10T10:05:53;14.82;;;4.15;;
61525;SDS011;47394;41.366;-8.738;2023-04-10T10:07:54;11.43;;;4.55;;
61525;SDS011;47394;41.366;-8.738;2023-04-10T10:09:54;13.32;;;4.40;;
61525;SDS011;47394;41.366;-8.738;2023-04-10T10:11:55;12.40;;;4.57;;
61525;SDS011;47394;41.366;-8.738;2023-04-10T10:13:56;10.07;;;3.60;;
61525;SDS011;47394;41.366;-8.738;2023-04-10T10:18:20;9.38;;;3.20;;
61525;SDS011;47394;41.366;-8.738;2023-04-10T10:20:21;8.43;;;3.28;;
61525;SDS011;47394;41.366;-8.738;2023-04-10T10:22:24;13.35;;;3.28;;
61525;SDS011;47394;41.366;-8.738;2023-04-10T10:24:25;4.75;;;1.60;;
61525;SDS011;47394;41.366;-8.738;2023-04-10T10:26:26;12.30;;;1.95;;
61525;SDS011;47394;41.366;-8.738;2023-04-10T10:28:28;7.45;;;1.98;;
61525;SDS011;47394;41.366;-8.738;2023-04-10T10:30:31;14.73;;;2.28;;
61525;SDS011;47394;41.366;-8.738;2023-04-10T10:32:33;13.60;;;2.20;;
61525;SDS011;47394;41.366;-8.738;2023-04-10T10:34:33;9.38;;;1.65;;
61525;SDS011;47394;41.366;-8.738;2023-04-10T10:36:35;10.32;;;3.08;;
61525;SDS011;47394;41.366;-8.738;2023-04-10T10:38:36;12.98;;;1.77;;
61525;SDS011;47394;41.366;-8.738;2023-04-10T10:49:02;7.93;;;3.50;;
61525;SDS011;47394;41.366;-8.738;2023-04-10T10:51:03;13.25;;;4.88;;
61525;SDS011;47394;41.366;-8.738;2023-04-10T10:53:03;16.27;;;5.50;;
61525;SDS011;47394;41.366;-8.738;2023-04-10T10:57:45;13.90;;;4.47;;
61525;SDS011;47394;41.366;-8.738;2023-04-10T11:04:32;5.40;;;1.63;;
61525;SDS011;47394;41.366;-8.738;2023-04-10T11:08:45;16.05;;;3.45;;
61525;SDS011;47394;41.366;-8.738;2023-04-10T11:10:59;14.15;;;3.72;;
61525;SDS011;47394;41.366;-8.738;2023-04-10T11:13:16;16.50;;;5.25;;
61525;SDS011;47394;41.366;-8.738;2023-04-10T11:15:20;22.65;;;6.47;;
61525;SDS011;47394;41.366;-8.738;2023-04-10T11:17:44;16.45;;;5.75;;
61525;SDS011;47394;41.366;-8.738;2023-04-10T11:19:58;24.50;;;7.15;;
61525;SDS011;47394;41.366;-8.738;2023-04-10T11:21:59;23.35;;;8.25;;
61525;SDS011;47394;41.366;-8.738;2023-04-10T11:24:01;20.52;;;8.32;;
61525;SDS011;47394;41.366;-8.738;2023-04-10T11:26:03;10.60;;;2.38;;
61525;SDS011;47394;41.366;-8.738;2023-04-10T11:28:03;16.02;;;3.25;;
61525;SDS011;47394;41.366;-8.738;2023-04-10T11:30:23;5.72;;;1.77;;
61525;SDS011;47394;41.366;-8.738;2023-04-10T11:32:24;8.73;;;1.90;;
61525;SDS011;47394;41.366;-8.738;2023-04-10T11:34:25;18.88;;;2.13;;
61525;SDS011;47394;41.366;-8.738;2023-04-10T11:36:33;7.90;;;1.70;;
61525;SDS011;47394;41.366;-8.738;2023-04-10T11:38:33;10.73;;;1.90;;
61525;SDS011;47394;41.366;-8.738;2023-04-10T11:40:34;6.40;;;1.40;;
61525;SDS011;47394;41.366;-8.738;2023-04-10T11:42:34;5.53;;;1.90;;
61525;SDS011;47394;41.366;-8.738;2023-04-10T11:44:35;6.53;;;1.63;;
61525;SDS011;47394;41.366;-8.738;2023-04-10T11:46:39;7.80;;;1.70;;
61525;SDS011;47394;41.366;-8.738;2023-04-10T11:48:40;5.55;;;1.33;;
61525;SDS011;47394;41.366;-8.738;2023-04-10T11:50:40;6.22;;;1.60;;
61525;SDS011;47394;41.366;-8.738;2023-04-10T11:52:41;10.80;;;2.72;;
61525;SDS011;47394;41.366;-8.738;2023-04-10T11:54:46;14.75;;;2.35;;
61525;SDS011;47394;41.366;-8.738;2023-04-10T11:58:53;5.38;;;1.63;;
61525;SDS011;47394;41.366;-8.738;2023-04-10T12:00:57;16.00;;;3.10;;
61525;SDS011;47394;41.366;-8.738;2023-04-10T12:02:58;7.90;;;1.95;;
61525;SDS011;47394;41.366;-8.738;2023-04-10T12:04:58;10.77;;;2.10;;
61525;SDS011;47394;41.366;-8.738;2023-04-10T12:06:59;8.57;;;2.80;;
61525;SDS011;47394;41.366;-8.738;2023-04-10T12:09:00;9.85;;;3.03;;
61525;SDS011;47394;41.366;-8.738;2023-04-10T12:11:11;6.97;;;2.80;;
61525;SDS011;47394;41.366;-8.738;2023-04-10T12:13:25;9.75;;;1.90;;
61525;SDS011;47394;41.366;-8.738;2023-04-10T12:15:26;9.73;;;1.88;;
61525;SDS011;47394;41.366;-8.738;2023-04-10T12:17:27;6.15;;;2.03;;
61525;SDS011;47394;41.366;-8.738;2023-04-10T12:19:27;13.32;;;2.22;;
61525;SDS011;47394;41.366;-8.738;2023-04-10T12:21:29;11.43;;;2.78;;
61525;SDS011;47394;41.366;-8.738;2023-04-10T12:23:30;14.70;;;2.65;;
61525;SDS011;47394;41.366;-8.738;2023-04-10T12:25:30;7.53;;;2.05;;
61525;SDS011;47394;41.366;-8.738;2023-04-10T12:27:31;17.70;;;2.95;;
61525;SDS011;47394;41.366;-8.738;2023-04-10T12:29:31;12.43;;;3.28;;
61525;SDS011;47394;41.366;-8.738;2023-04-10T12:31:33;13.90;;;3.30;;
61525;SDS011;47394;41.366;-8.738;2023-04-10T12:33:33;15.40;;;3.15;;
61525;SDS011;47394;41.366;-8.738;2023-04-10T12:35:37;7.95;;;1.92;;
61525;SDS011;47394;41.366;-8.738;2023-04-10T12:39:48;11.52;;;2.35;;
61525;SDS011;47394;41.366;-8.738;2023-04-10T12:41:49;18.65;;;3.65;;
61525;SDS011;47394;41.366;-8.738;2023-04-10T12:43:50;14.07;;;3.60;;
61525;SDS011;47394;41.366;-8.738;2023-04-10T12:45:50;13.43;;;3.20;;
61525;SDS011;47394;41.366;-8.738;2023-04-10T12:47:51;11.73;;;2.45;;
61525;SDS011;47394;41.366;-8.738;2023-04-10T12:50:12;12.90;;;3.80;;
61525;SDS011;47394;41.366;-8.738;2023-04-10T12:52:20;14.68;;;3.60;;
61525;SDS011;47394;41.366;-8.738;2023-04-10T12:54:31;18.98;;;4.53;;
61525;SDS011;47394;41.366;-8.738;2023-04-10T12:56:41;17.08;;;4.60;;
61525;SDS011;47394;41.366;-8.738;2023-04-10T12:58:42;14.75;;;4.15;;
61525;SDS011;47394;41.366;-8.738;2023-04-10T13:00:43;16.65;;;4.53;;
61525;SDS011;47394;41.366;-8.738;2023-04-10T13:02:44;21.60;;;4.45;;